sensor_id;sensor_type;location;lat;lon;timestamp;P1;durP1;ratioP1;P2;durP2;ratioP2
54263;SDS011;40178;53.042;6.406;2022-08-21T00:00:54;9.38;;;2.88;;
54263;SDS011;40178;53.042;6.406;2022-08-21T00:03:19;8.05;;;2.63;;
54263;SDS011;40178;53.042;6.406;2022-08-21T00:05:46;7.05;;;2.70;;
54263;SDS011;40178;53.042;6.406;2022-08-21T00:08:14;6.47;;;2.65;;
54263;SDS011;40178;53.042;6.406;2022-08-21T00:10:41;8.27;;;2.90;;
54263;SDS011;40178;53.042;6.406;2022-08-21T00:13:08;8.38;;;2.70;;
54263;SDS011;40178;53.042;6.406;2022-08-21T00:15:35;8.43;;;2.78;;
54263;SDS011;40178;53.042;6.406;2022-08-21T00:18:03;6.45;;;2.80;;
54263;SDS011;40178;53.042;6.406;2022-08-21T00:20:29;7.80;;;2.65;;
54263;SDS011;40178;53.042;6.406;2022-08-21T00:22:56;7.10;;;2.67;;
54263;SDS011;40178;53.042;6.406;2022-08-21T00:25:22;5.50;;;2.85;;
54263;SDS011;40178;53.042;6.406;2022-08-21T00:27:47;6.25;;;3.00;;
54263;SDS011;40178;53.042;6.406;2022-08-21T00:30:14;6.68;;;3.00;;
54263;SDS011;40178;53.042;6.406;2022-08-21T00:32:41;4.75;;;2.10;;
54263;SDS011;40178;53.042;6.406;2022-08-21T00:35:09;5.18;;;2.10;;
54263;SDS011;40178;53.042;6.406;2022-08-21T00:37:37;4.85;;;1.85;;
54263;SDS011;40178;53.042;6.406;2022-08-21T00:40:06;6.90;;;2.38;;
54263;SDS011;40178;53.042;6.406;2022-08-21T00:42:34;4.72;;;2.15;;
54263;SDS011;40178;53.042;6.406;2022-08-21T00:45:00;6.50;;;2.30;;
54263;SDS011;40178;53.042;6.406;2022-08-21T00:47:27;7.00;;;2.58;;
54263;SDS011;40178;53.042;6.406;2022-08-21T00:49:53;6.05;;;2.80;;
54263;SDS011;40178;53.042;6.406;2022-08-21T00:52:26;8.40;;;3.05;;
54263;SDS011;40178;53.042;6.406;2022-08-21T00:54:55;7.07;;;2.80;;
54263;SDS011;40178;53.042;6.406;2022-08-21T00:57:26;6.20;;;2.50;;
54263;SDS011;40178;53.042;6.406;2022-08-21T00:59:59;6.13;;;2.80;;
54263;SDS011;40178;53.042;6.406;2022-08-21T01:02:28;7.93;;;2.97;;
54263;SDS011;40178;53.042;6.406;2022-08-21T01:04:54;6.90;;;2.55;;
54263;SDS011;40178;53.042;6.406;2022-08-21T01:07:19;5.40;;;2.92;;
54263;SDS011;40178;53.042;6.406;2022-08-21T01:09:46;10.75;;;3.25;;
54263;SDS011;40178;53.042;6.406;2022-08-21T01:12:12;7.10;;;3.03;;
54263;SDS011;40178;53.042;6.406;2022-08-21T01:14:39;7.18;;;3.10;;
54263;SDS011;40178;53.042;6.406;2022-08-21T01:17:07;7.03;;;3.28;;
54263;SDS011;40178;53.042;6.406;2022-08-21T01:19:34;7.28;;;3.33;;
54263;SDS011;40178;53.042;6.406;2022-08-21T01:22:00;10.23;;;3.95;;
54263;SDS011;40178;53.042;6.406;2022-08-21T01:24:26;8.02;;;3.42;;
54263;SDS011;40178;53.042;6.406;2022-08-21T01:26:52;7.68;;;3.20;;
54263;SDS011;40178;53.042;6.406;2022-08-21T01:32:05;7.40;;;3.63;;
54263;SDS011;40178;53.042;6.406;2022-08-21T01:34:34;7.65;;;3.17;;
54263;SDS011;40178;53.042;6.406;2022-08-21T01:37:03;6.78;;;3.30;;
54263;SDS011;40178;53.042;6.406;2022-08-21T01:39:29;7.65;;;3.70;;
54263;SDS011;40178;53.042;6.406;2022-08-21T01:41:55;7.88;;;3.67;;
54263;SDS011;40178;53.042;6.406;2022-08-21T01:44:24;9.18;;;4.07;;
54263;SDS011;40178;53.042;6.406;2022-08-21T01:46:50;9.18;;;4.43;;
54263;SDS011;40178;53.042;6.406;2022-08-21T01:49:16;8.68;;;4.45;;
54263;SDS011;40178;53.042;6.406;2022-08-21T01:51:42;10.20;;;4.35;;
54263;SDS011;40178;53.042;6.406;2022-08-21T01:54:08;12.63;;;5.05;;
54263;SDS011;40178;53.042;6.406;2022-08-21T01:56:35;10.80;;;4.85;;
54263;SDS011;40178;53.042;6.406;2022-08-21T01:59:07;9.88;;;5.25;;
54263;SDS011;40178;53.042;6.406;2022-08-21T02:01:33;9.13;;;4.97;;
54263;SDS011;40178;53.042;6.406;2022-08-21T02:03:59;9.27;;;4.97;;
54263;SDS011;40178;53.042;6.406;2022-08-21T02:06:25;8.20;;;4.72;;
54263;SDS011;40178;53.042;6.406;2022-08-21T02:08:51;9.95;;;4.50;;
54263;SDS011;40178;53.042;6.406;2022-08-21T02:11:17;9.80;;;5.20;;
54263;SDS011;40178;53.042;6.406;2022-08-21T02:13:43;9.07;;;4.47;;
54263;SDS011;40178;53.042;6.406;2022-08-21T02:16:09;8.32;;;4.25;;
54263;SDS011;40178;53.042;6.406;2022-08-21T02:18:35;9.75;;;4.60;;
54263;SDS011;40178;53.042;6.406;2022-08-21T02:21:01;8.13;;;4.75;;
54263;SDS011;40178;53.042;6.406;2022-08-21T02:23:27;8.35;;;4.38;;
54263;SDS011;40178;53.042;6.406;2022-08-21T02:25:56;8.50;;;4.45;;
54263;SDS011;40178;53.042;6.406;2022-08-21T02:28:23;9.13;;;4.10;;
54263;SDS011;40178;53.042;6.406;2022-08-21T02:30:49;8.50;;;4.65;;
54263;SDS011;40178;53.042;6.406;2022-08-21T02:33:15;8.18;;;4.45;;
54263;SDS011;40178;53.042;6.406;2022-08-21T02:35:42;9.07;;;4.57;;
54263;SDS011;40178;53.042;6.406;2022-08-21T02:38:11;9.45;;;4.28;;
54263;SDS011;40178;53.042;6.406;2022-08-21T02:40:46;8.02;;;4.72;;
54263;SDS011;40178;53.042;6.406;2022-08-21T02:43:13;10.77;;;5.00;;
54263;SDS011;40178;53.042;6.406;2022-08-21T02:45:40;10.38;;;5.43;;
54263;SDS011;40178;53.042;6.406;2022-08-21T02:48:10;8.18;;;4.70;;
54263;SDS011;40178;53.042;6.406;2022-08-21T02:50:40;7.28;;;4.57;;
54263;SDS011;40178;53.042;6.406;2022-08-21T02:53:08;10.40;;;5.07;;
54263;SDS011;40178;53.042;6.406;2022-08-21T02:55:36;9.30;;;5.50;;
54263;SDS011;40178;53.042;6.406;2022-08-21T02:58:04;8.32;;;4.82;;
54263;SDS011;40178;53.042;6.406;2022-08-21T03:00:31;11.45;;;5.45;;
54263;SDS011;40178;53.042;6.406;2022-08-21T03:02:58;9.15;;;5.75;;
54263;SDS011;40178;53.042;6.406;2022-08-21T03:05:24;8.73;;;4.90;;
54263;SDS011;40178;53.042;6.406;2022-08-21T03:07:51;9.15;;;5.13;;
54263;SDS011;40178;53.042;6.406;2022-08-21T03:10:17;8.57;;;5.07;;
54263;SDS011;40178;53.042;6.406;2022-08-21T03:12:44;12.02;;;5.63;;
54263;SDS011;40178;53.042;6.406;2022-08-21T03:15:11;9.95;;;6.03;;
54263;SDS011;40178;53.042;6.406;2022-08-21T03:17:39;12.32;;;5.60;;
54263;SDS011;40178;53.042;6.406;2022-08-21T03:20:06;13.43;;;5.32;;
54263;SDS011;40178;53.042;6.406;2022-08-21T03:22:33;11.75;;;5.95;;
54263;SDS011;40178;53.042;6.406;2022-08-21T03:24:59;10.98;;;5.50;;
54263;SDS011;40178;53.042;6.406;2022-08-21T03:27:25;12.27;;;5.88;;
54263;SDS011;40178;53.042;6.406;2022-08-21T03:29:52;12.65;;;5.60;;
54263;SDS011;40178;53.042;6.406;2022-08-21T03:32:18;12.25;;;5.90;;
54263;SDS011;40178;53.042;6.406;2022-08-21T03:34:45;10.88;;;5.32;;
54263;SDS011;40178;53.042;6.406;2022-08-21T03:37:11;12.25;;;5.50;;
54263;SDS011;40178;53.042;6.406;2022-08-21T03:39:38;10.45;;;5.45;;
54263;SDS011;40178;53.042;6.406;2022-08-21T03:42:04;11.77;;;5.28;;
54263;SDS011;40178;53.042;6.406;2022-08-21T03:44:31;10.15;;;5.40;;
54263;SDS011;40178;53.042;6.406;2022-08-21T03:46:57;12.77;;;5.70;;
54263;SDS011;40178;53.042;6.406;2022-08-21T03:49:23;13.95;;;5.90;;
54263;SDS011;40178;53.042;6.406;2022-08-21T03:51:49;9.95;;;5.60;;
54263;SDS011;40178;53.042;6.406;2022-08-21T03:54:15;9.85;;;4.85;;
54263;SDS011;40178;53.042;6.406;2022-08-21T03:56:41;12.35;;;5.80;;
54263;SDS011;40178;53.042;6.406;2022-08-21T03:59:06;12.02;;;5.28;;
54263;SDS011;40178;53.042;6.406;2022-08-21T04:01:32;11.35;;;5.50;;
54263;SDS011;40178;53.042;6.406;2022-08-21T04:03:58;12.77;;;5.78;;
54263;SDS011;40178;53.042;6.406;2022-08-21T04:06:24;10.48;;;5.35;;
54263;SDS011;40178;53.042;6.406;2022-08-21T04:08:51;13.27;;;5.70;;
54263;SDS011;40178;53.042;6.406;2022-08-21T04:11:17;11.13;;;5.05;;
54263;SDS011;40178;53.042;6.406;2022-08-21T04:13:43;12.43;;;6.22;;
54263;SDS011;40178;53.042;6.406;2022-08-21T04:16:09;10.35;;;6.00;;
54263;SDS011;40178;53.042;6.406;2022-08-21T04:18:35;12.77;;;5.60;;
54263;SDS011;40178;53.042;6.406;2022-08-21T04:21:01;10.93;;;6.10;;
54263;SDS011;40178;53.042;6.406;2022-08-21T04:23:27;13.93;;;6.70;;
54263;SDS011;40178;53.042;6.406;2022-08-21T04:25:54;11.75;;;6.47;;
54263;SDS011;40178;53.042;6.406;2022-08-21T04:28:21;12.98;;;7.53;;
54263;SDS011;40178;53.042;6.406;2022-08-21T04:30:48;10.02;;;5.95;;
54263;SDS011;40178;53.042;6.406;2022-08-21T04:33:15;14.40;;;6.85;;
54263;SDS011;40178;53.042;6.406;2022-08-21T04:35:41;13.30;;;6.20;;
54263;SDS011;40178;53.042;6.406;2022-08-21T04:38:07;11.32;;;6.47;;
54263;SDS011;40178;53.042;6.406;2022-08-21T04:40:33;12.18;;;6.63;;
54263;SDS011;40178;53.042;6.406;2022-08-21T04:43:03;10.95;;;6.68;;
54263;SDS011;40178;53.042;6.406;2022-08-21T04:45:32;13.75;;;6.38;;
54263;SDS011;40178;53.042;6.406;2022-08-21T04:48:00;11.05;;;5.97;;
54263;SDS011;40178;53.042;6.406;2022-08-21T04:55:56;10.47;;;6.53;;
54263;SDS011;40178;53.042;6.406;2022-08-21T04:58:29;11.65;;;6.40;;
54263;SDS011;40178;53.042;6.406;2022-08-21T05:00:58;11.23;;;5.95;;
54263;SDS011;40178;53.042;6.406;2022-08-21T05:03:25;13.88;;;6.78;;
54263;SDS011;40178;53.042;6.406;2022-08-21T05:05:50;11.43;;;6.70;;
54263;SDS011;40178;53.042;6.406;2022-08-21T05:08:17;13.38;;;6.70;;
54263;SDS011;40178;53.042;6.406;2022-08-21T05:10:46;14.55;;;6.70;;
54263;SDS011;40178;53.042;6.406;2022-08-21T05:13:12;13.38;;;6.30;;
54263;SDS011;40178;53.042;6.406;2022-08-21T05:15:39;14.10;;;6.45;;
54263;SDS011;40178;53.042;6.406;2022-08-21T05:18:05;15.38;;;6.05;;
54263;SDS011;40178;53.042;6.406;2022-08-21T05:20:32;12.02;;;6.38;;
54263;SDS011;40178;53.042;6.406;2022-08-21T05:23:01;11.70;;;6.53;;
54263;SDS011;40178;53.042;6.406;2022-08-21T05:25:33;11.07;;;6.93;;
54263;SDS011;40178;53.042;6.406;2022-08-21T05:27:58;14.73;;;6.78;;
54263;SDS011;40178;53.042;6.406;2022-08-21T05:30:24;14.18;;;7.10;;
54263;SDS011;40178;53.042;6.406;2022-08-21T05:32:55;11.75;;;6.60;;
54263;SDS011;40178;53.042;6.406;2022-08-21T05:35:24;17.17;;;6.82;;
54263;SDS011;40178;53.042;6.406;2022-08-21T05:37:51;13.98;;;6.22;;
54263;SDS011;40178;53.042;6.406;2022-08-21T05:40:16;13.18;;;6.18;;
54263;SDS011;40178;53.042;6.406;2022-08-21T05:42:42;11.77;;;5.97;;
54263;SDS011;40178;53.042;6.406;2022-08-21T05:45:08;11.23;;;6.72;;
54263;SDS011;40178;53.042;6.406;2022-08-21T05:47:35;12.70;;;6.35;;
54263;SDS011;40178;53.042;6.406;2022-08-21T05:50:00;15.43;;;6.68;;
54263;SDS011;40178;53.042;6.406;2022-08-21T05:52:26;15.93;;;6.50;;
54263;SDS011;40178;53.042;6.406;2022-08-21T05:54:52;13.43;;;6.60;;
54263;SDS011;40178;53.042;6.406;2022-08-21T05:57:19;13.05;;;6.00;;
54263;SDS011;40178;53.042;6.406;2022-08-21T05:59:45;13.43;;;6.25;;
54263;SDS011;40178;53.042;6.406;2022-08-21T06:02:11;12.15;;;5.90;;
54263;SDS011;40178;53.042;6.406;2022-08-21T06:04:40;13.35;;;6.30;;
54263;SDS011;40178;53.042;6.406;2022-08-21T06:07:06;13.30;;;6.18;;
54263;SDS011;40178;53.042;6.406;2022-08-21T06:09:32;12.52;;;5.90;;
54263;SDS011;40178;53.042;6.406;2022-08-21T06:11:58;14.63;;;6.38;;
54263;SDS011;40178;53.042;6.406;2022-08-21T06:14:28;11.25;;;5.70;;
54263;SDS011;40178;53.042;6.406;2022-08-21T06:16:53;11.25;;;5.70;;
54263;SDS011;40178;53.042;6.406;2022-08-21T06:19:19;12.52;;;6.10;;
54263;SDS011;40178;53.042;6.406;2022-08-21T06:21:44;11.00;;;4.90;;
54263;SDS011;40178;53.042;6.406;2022-08-21T06:24:10;9.68;;;5.60;;
54263;SDS011;40178;53.042;6.406;2022-08-21T06:26:36;10.00;;;4.93;;
54263;SDS011;40178;53.042;6.406;2022-08-21T06:29:02;10.65;;;5.38;;
54263;SDS011;40178;53.042;6.406;2022-08-21T06:31:28;14.60;;;5.15;;
54263;SDS011;40178;53.042;6.406;2022-08-21T06:33:54;10.77;;;4.45;;
54263;SDS011;40178;53.042;6.406;2022-08-21T06:36:20;11.75;;;4.65;;
54263;SDS011;40178;53.042;6.406;2022-08-21T06:38:46;11.80;;;4.30;;
54263;SDS011;40178;53.042;6.406;2022-08-21T06:41:12;8.88;;;4.00;;
54263;SDS011;40178;53.042;6.406;2022-08-21T06:43:38;11.25;;;3.90;;
54263;SDS011;40178;53.042;6.406;2022-08-21T06:46:04;11.52;;;3.63;;
54263;SDS011;40178;53.042;6.406;2022-08-21T06:48:29;10.52;;;3.95;;
54263;SDS011;40178;53.042;6.406;2022-08-21T06:50:58;9.80;;;3.53;;
54263;SDS011;40178;53.042;6.406;2022-08-21T06:53:24;8.32;;;3.58;;
54263;SDS011;40178;53.042;6.406;2022-08-21T06:55:50;7.90;;;3.08;;
54263;SDS011;40178;53.042;6.406;2022-08-21T06:58:16;9.52;;;3.20;;
54263;SDS011;40178;53.042;6.406;2022-08-21T07:00:45;7.55;;;2.83;;
54263;SDS011;40178;53.042;6.406;2022-08-21T07:05:55;10.35;;;2.60;;
54263;SDS011;40178;53.042;6.406;2022-08-21T07:08:23;8.40;;;2.95;;
54263;SDS011;40178;53.042;6.406;2022-08-21T07:10:50;8.20;;;2.85;;
54263;SDS011;40178;53.042;6.406;2022-08-21T07:13:17;10.38;;;3.20;;
54263;SDS011;40178;53.042;6.406;2022-08-21T07:15:43;7.78;;;2.60;;
54263;SDS011;40178;53.042;6.406;2022-08-21T07:18:10;8.25;;;2.95;;
54263;SDS011;40178;53.042;6.406;2022-08-21T07:20:36;8.45;;;2.80;;
54263;SDS011;40178;53.042;6.406;2022-08-21T07:23:03;10.05;;;2.65;;
54263;SDS011;40178;53.042;6.406;2022-08-21T07:25:32;7.32;;;2.78;;
54263;SDS011;40178;53.042;6.406;2022-08-21T07:27:58;8.32;;;2.38;;
54263;SDS011;40178;53.042;6.406;2022-08-21T07:30:24;6.32;;;2.05;;
54263;SDS011;40178;53.042;6.406;2022-08-21T07:32:50;9.05;;;3.08;;
54263;SDS011;40178;53.042;6.406;2022-08-21T07:35:17;8.70;;;2.15;;
54263;SDS011;40178;53.042;6.406;2022-08-21T07:37:43;8.05;;;2.42;;
54263;SDS011;40178;53.042;6.406;2022-08-21T07:40:10;8.88;;;2.13;;
54263;SDS011;40178;53.042;6.406;2022-08-21T07:42:39;5.47;;;1.67;;
54263;SDS011;40178;53.042;6.406;2022-08-21T07:45:06;6.70;;;2.03;;
54263;SDS011;40178;53.042;6.406;2022-08-21T07:47:32;6.43;;;2.35;;
54263;SDS011;40178;53.042;6.406;2022-08-21T07:49:58;5.43;;;1.65;;
54263;SDS011;40178;53.042;6.406;2022-08-21T07:52:24;5.82;;;2.03;;
54263;SDS011;40178;53.042;6.406;2022-08-21T07:54:49;7.57;;;1.77;;
54263;SDS011;40178;53.042;6.406;2022-08-21T07:57:15;4.88;;;1.70;;
54263;SDS011;40178;53.042;6.406;2022-08-21T07:59:41;8.07;;;1.55;;
54263;SDS011;40178;53.042;6.406;2022-08-21T08:02:07;7.38;;;1.77;;
54263;SDS011;40178;53.042;6.406;2022-08-21T08:04:32;6.50;;;1.70;;
54263;SDS011;40178;53.042;6.406;2022-08-21T08:06:58;7.93;;;1.40;;
54263;SDS011;40178;53.042;6.406;2022-08-21T08:09:23;9.52;;;1.75;;
54263;SDS011;40178;53.042;6.406;2022-08-21T08:11:49;5.45;;;1.60;;
54263;SDS011;40178;53.042;6.406;2022-08-21T08:14:16;9.80;;;1.77;;
54263;SDS011;40178;53.042;6.406;2022-08-21T08:16:42;7.40;;;2.03;;
54263;SDS011;40178;53.042;6.406;2022-08-21T08:19:08;5.03;;;1.50;;
54263;SDS011;40178;53.042;6.406;2022-08-21T08:21:33;9.50;;;1.83;;
54263;SDS011;40178;53.042;6.406;2022-08-21T08:24:00;8.57;;;1.83;;
54263;SDS011;40178;53.042;6.406;2022-08-21T08:26:26;7.15;;;1.42;;
54263;SDS011;40178;53.042;6.406;2022-08-21T08:28:52;6.85;;;1.50;;
54263;SDS011;40178;53.042;6.406;2022-08-21T08:31:18;6.20;;;1.60;;
54263;SDS011;40178;53.042;6.406;2022-08-21T08:33:43;8.45;;;1.90;;
54263;SDS011;40178;53.042;6.406;2022-08-21T08:36:16;8.88;;;2.17;;
54263;SDS011;40178;53.042;6.406;2022-08-21T08:38:43;6.68;;;1.67;;
54263;SDS011;40178;53.042;6.406;2022-08-21T08:41:16;10.40;;;1.85;;
54263;SDS011;40178;53.042;6.406;2022-08-21T08:43:54;5.70;;;1.92;;
54263;SDS011;40178;53.042;6.406;2022-08-21T08:46:30;9.60;;;2.42;;
54263;SDS011;40178;53.042;6.406;2022-08-21T08:49:13;7.43;;;1.92;;
54263;SDS011;40178;53.042;6.406;2022-08-21T08:51:53;7.72;;;1.95;;
54263;SDS011;40178;53.042;6.406;2022-08-21T08:54:28;10.43;;;1.83;;
54263;SDS011;40178;53.042;6.406;2022-08-21T08:57:07;9.00;;;2.08;;
54263;SDS011;40178;53.042;6.406;2022-08-21T08:59:43;6.57;;;2.27;;
54263;SDS011;40178;53.042;6.406;2022-08-21T09:02:12;7.82;;;2.20;;
54263;SDS011;40178;53.042;6.406;2022-08-21T09:04:39;8.38;;;2.13;;
54263;SDS011;40178;53.042;6.406;2022-08-21T09:10:34;6.30;;;2.38;;
54263;SDS011;40178;53.042;6.406;2022-08-21T09:13:26;7.40;;;2.30;;
54263;SDS011;40178;53.042;6.406;2022-08-21T09:15:47;5.47;;;1.48;;
54263;SDS011;40178;53.042;6.406;2022-08-21T09:18:54;6.97;;;2.10;;
54263;SDS011;40178;53.042;6.406;2022-08-21T09:21:49;6.57;;;2.25;;
54263;SDS011;40178;53.042;6.406;2022-08-21T09:26:49;8.10;;;2.00;;
54263;SDS011;40178;53.042;6.406;2022-08-21T09:29:27;9.25;;;1.90;;
54263;SDS011;40178;53.042;6.406;2022-08-21T09:31:56;11.50;;;2.35;;
54263;SDS011;40178;53.042;6.406;2022-08-21T09:34:26;8.38;;;2.22;;
54263;SDS011;40178;53.042;6.406;2022-08-21T09:36:53;8.23;;;2.33;;
54263;SDS011;40178;53.042;6.406;2022-08-21T09:39:26;10.13;;;2.90;;
54263;SDS011;40178;53.042;6.406;2022-08-21T09:42:04;9.30;;;2.00;;
54263;SDS011;40178;53.042;6.406;2022-08-21T09:44:32;6.07;;;2.03;;
54263;SDS011;40178;53.042;6.406;2022-08-21T09:47:04;7.43;;;2.20;;
54263;SDS011;40178;53.042;6.406;2022-08-21T09:49:35;7.13;;;2.13;;
54263;SDS011;40178;53.042;6.406;2022-08-21T09:52:03;7.38;;;2.05;;
54263;SDS011;40178;53.042;6.406;2022-08-21T09:54:40;7.82;;;1.42;;
54263;SDS011;40178;53.042;6.406;2022-08-21T09:59:53;8.32;;;2.17;;
54263;SDS011;40178;53.042;6.406;2022-08-21T10:02:24;5.10;;;1.48;;
54263;SDS011;40178;53.042;6.406;2022-08-21T10:04:58;6.88;;;1.75;;
54263;SDS011;40178;53.042;6.406;2022-08-21T10:07:27;8.00;;;1.52;;
54263;SDS011;40178;53.042;6.406;2022-08-21T10:10:00;5.03;;;1.50;;
54263;SDS011;40178;53.042;6.406;2022-08-21T10:12:31;6.45;;;1.50;;
54263;SDS011;40178;53.042;6.406;2022-08-21T10:23:27;6.82;;;1.80;;
54263;SDS011;40178;53.042;6.406;2022-08-21T10:31:53;6.35;;;1.65;;
54263;SDS011;40178;53.042;6.406;2022-08-21T10:39:47;7.47;;;1.60;;
54263;SDS011;40178;53.042;6.406;2022-08-21T10:43:47;6.18;;;1.75;;
54263;SDS011;40178;53.042;6.406;2022-08-21T10:48:37;8.45;;;2.20;;
54263;SDS011;40178;53.042;6.406;2022-08-21T10:51:09;7.93;;;1.77;;
54263;SDS011;40178;53.042;6.406;2022-08-21T10:53:47;7.47;;;1.55;;
54263;SDS011;40178;53.042;6.406;2022-08-21T11:04:56;4.47;;;1.40;;
54263;SDS011;40178;53.042;6.406;2022-08-21T11:07:28;6.85;;;1.65;;
54263;SDS011;40178;53.042;6.406;2022-08-21T11:09:56;6.22;;;1.70;;
54263;SDS011;40178;53.042;6.406;2022-08-21T11:12:28;7.07;;;1.50;;
54263;SDS011;40178;53.042;6.406;2022-08-21T11:15:23;7.75;;;2.00;;
54263;SDS011;40178;53.042;6.406;2022-08-21T11:17:58;6.55;;;2.08;;
54263;SDS011;40178;53.042;6.406;2022-08-21T11:23:31;6.30;;;1.80;;
54263;SDS011;40178;53.042;6.406;2022-08-21T11:26:00;8.40;;;2.03;;
54263;SDS011;40178;53.042;6.406;2022-08-21T11:28:33;6.50;;;1.60;;
54263;SDS011;40178;53.042;6.406;2022-08-21T11:33:47;9.40;;;2.00;;
54263;SDS011;40178;53.042;6.406;2022-08-21T11:39:12;6.25;;;2.00;;
54263;SDS011;40178;53.042;6.406;2022-08-21T11:41:44;10.43;;;2.13;;
54263;SDS011;40178;53.042;6.406;2022-08-21T11:44:47;7.35;;;1.92;;
54263;SDS011;40178;53.042;6.406;2022-08-21T11:50:35;7.40;;;2.35;;
54263;SDS011;40178;53.042;6.406;2022-08-21T11:55:57;7.82;;;1.80;;
54263;SDS011;40178;53.042;6.406;2022-08-21T11:58:49;4.88;;;1.65;;
54263;SDS011;40178;53.042;6.406;2022-08-21T12:01:28;7.07;;;1.67;;
54263;SDS011;40178;53.042;6.406;2022-08-21T12:04:02;6.63;;;1.40;;
54263;SDS011;40178;53.042;6.406;2022-08-21T12:09:03;5.30;;;1.75;;
54263;SDS011;40178;53.042;6.406;2022-08-21T12:11:59;2.95;;;1.30;;
54263;SDS011;40178;53.042;6.406;2022-08-21T12:14:37;4.57;;;1.38;;
54263;SDS011;40178;53.042;6.406;2022-08-21T12:17:17;5.97;;;2.13;;
54263;SDS011;40178;53.042;6.406;2022-08-21T12:19:44;7.03;;;1.63;;
54263;SDS011;40178;53.042;6.406;2022-08-21T12:22:11;5.53;;;1.48;;
54263;SDS011;40178;53.042;6.406;2022-08-21T12:24:45;5.85;;;1.42;;
54263;SDS011;40178;53.042;6.406;2022-08-21T12:29:51;4.80;;;1.45;;
54263;SDS011;40178;53.042;6.406;2022-08-21T12:32:24;6.18;;;1.52;;
54263;SDS011;40178;53.042;6.406;2022-08-21T12:34:54;8.13;;;1.77;;
54263;SDS011;40178;53.042;6.406;2022-08-21T12:40:09;6.90;;;1.98;;
54263;SDS011;40178;53.042;6.406;2022-08-21T12:42:42;7.53;;;1.83;;
54263;SDS011;40178;53.042;6.406;2022-08-21T12:45:18;8.50;;;2.00;;
54263;SDS011;40178;53.042;6.406;2022-08-21T12:47:54;5.40;;;1.63;;
54263;SDS011;40178;53.042;6.406;2022-08-21T12:50:42;7.00;;;1.88;;
54263;SDS011;40178;53.042;6.406;2022-08-21T12:53:23;6.25;;;1.75;;
54263;SDS011;40178;53.042;6.406;2022-08-21T12:55:55;4.72;;;1.67;;
54263;SDS011;40178;53.042;6.406;2022-08-21T12:58:27;6.30;;;1.60;;
54263;SDS011;40178;53.042;6.406;2022-08-21T13:01:04;5.38;;;1.38;;
54263;SDS011;40178;53.042;6.406;2022-08-21T13:03:37;5.38;;;1.50;;
54263;SDS011;40178;53.042;6.406;2022-08-21T13:06:04;3.92;;;1.35;;
54263;SDS011;40178;53.042;6.406;2022-08-21T13:08:30;7.85;;;1.60;;
54263;SDS011;40178;53.042;6.406;2022-08-21T13:11:02;5.55;;;1.50;;
54263;SDS011;40178;53.042;6.406;2022-08-21T13:13:30;4.45;;;1.23;;
54263;SDS011;40178;53.042;6.406;2022-08-21T13:15:58;5.22;;;1.60;;
54263;SDS011;40178;53.042;6.406;2022-08-21T13:18:28;5.75;;;1.58;;
54263;SDS011;40178;53.042;6.406;2022-08-21T13:23:40;7.03;;;1.50;;
54263;SDS011;40178;53.042;6.406;2022-08-21T13:26:13;5.50;;;1.70;;
54263;SDS011;40178;53.042;6.406;2022-08-21T13:28:43;8.55;;;1.63;;
54263;SDS011;40178;53.042;6.406;2022-08-21T13:31:12;6.90;;;2.60;;
54263;SDS011;40178;53.042;6.406;2022-08-21T13:33:43;6.43;;;1.70;;
54263;SDS011;40178;53.042;6.406;2022-08-21T13:36:10;6.38;;;1.30;;
54263;SDS011;40178;53.042;6.406;2022-08-21T13:38:48;4.15;;;1.20;;
54263;SDS011;40178;53.042;6.406;2022-08-21T13:41:25;4.68;;;1.33;;
54263;SDS011;40178;53.042;6.406;2022-08-21T13:44:02;5.40;;;1.27;;
54263;SDS011;40178;53.042;6.406;2022-08-21T13:46:33;5.72;;;1.52;;
54263;SDS011;40178;53.042;6.406;2022-08-21T13:49:01;7.28;;;1.00;;
54263;SDS011;40178;53.042;6.406;2022-08-21T13:51:30;4.68;;;0.95;;
54263;SDS011;40178;53.042;6.406;2022-08-21T13:53:56;5.32;;;1.25;;
54263;SDS011;40178;53.042;6.406;2022-08-21T13:58:55;6.78;;;1.55;;
54263;SDS011;40178;53.042;6.406;2022-08-21T14:01:25;5.32;;;0.82;;
54263;SDS011;40178;53.042;6.406;2022-08-21T14:03:55;3.85;;;0.80;;
54263;SDS011;40178;53.042;6.406;2022-08-21T14:06:26;5.43;;;1.02;;
54263;SDS011;40178;53.042;6.406;2022-08-21T14:08:54;3.67;;;0.85;;
54263;SDS011;40178;53.042;6.406;2022-08-21T14:11:25;4.78;;;1.42;;
54263;SDS011;40178;53.042;6.406;2022-08-21T14:16:24;3.25;;;0.68;;
54263;SDS011;40178;53.042;6.406;2022-08-21T14:21:35;3.95;;;0.95;;
54263;SDS011;40178;53.042;6.406;2022-08-21T14:24:11;5.75;;;0.73;;
54263;SDS011;40178;53.042;6.406;2022-08-21T14:27:01;5.55;;;0.88;;
54263;SDS011;40178;53.042;6.406;2022-08-21T14:29:32;4.57;;;0.93;;
54263;SDS011;40178;53.042;6.406;2022-08-21T14:32:08;4.82;;;0.98;;
54263;SDS011;40178;53.042;6.406;2022-08-21T14:34:44;2.60;;;0.90;;
54263;SDS011;40178;53.042;6.406;2022-08-21T14:37:10;6.93;;;1.25;;
54263;SDS011;40178;53.042;6.406;2022-08-21T14:39:35;3.85;;;0.90;;
54263;SDS011;40178;53.042;6.406;2022-08-21T14:42:01;3.35;;;1.10;;
54263;SDS011;40178;53.042;6.406;2022-08-21T14:44:27;3.10;;;1.33;;
54263;SDS011;40178;53.042;6.406;2022-08-21T14:46:52;5.65;;;1.15;;
54263;SDS011;40178;53.042;6.406;2022-08-21T14:49:19;5.25;;;1.10;;
54263;SDS011;40178;53.042;6.406;2022-08-21T14:51:45;4.68;;;1.02;;
54263;SDS011;40178;53.042;6.406;2022-08-21T14:54:11;5.25;;;1.10;;
54263;SDS011;40178;53.042;6.406;2022-08-21T14:56:36;6.00;;;1.63;;
54263;SDS011;40178;53.042;6.406;2022-08-21T14:59:06;4.30;;;1.05;;
54263;SDS011;40178;53.042;6.406;2022-08-21T15:01:34;3.92;;;0.90;;
54263;SDS011;40178;53.042;6.406;2022-08-21T15:04:09;4.43;;;0.90;;
54263;SDS011;40178;53.042;6.406;2022-08-21T15:06:34;8.90;;;1.42;;
54263;SDS011;40178;53.042;6.406;2022-08-21T15:09:00;5.90;;;1.00;;
54263;SDS011;40178;53.042;6.406;2022-08-21T15:11:28;4.55;;;1.30;;
54263;SDS011;40178;53.042;6.406;2022-08-21T15:13:55;4.28;;;1.08;;
54263;SDS011;40178;53.042;6.406;2022-08-21T15:16:23;4.97;;;1.15;;
54263;SDS011;40178;53.042;6.406;2022-08-21T15:18:49;4.13;;;0.82;;
54263;SDS011;40178;53.042;6.406;2022-08-21T15:21:15;3.90;;;1.00;;
54263;SDS011;40178;53.042;6.406;2022-08-21T15:23:40;5.85;;;1.85;;
54263;SDS011;40178;53.042;6.406;2022-08-21T15:26:06;5.85;;;1.10;;
54263;SDS011;40178;53.042;6.406;2022-08-21T15:28:33;6.15;;;1.08;;
54263;SDS011;40178;53.042;6.406;2022-08-21T15:30:59;2.40;;;0.88;;
54263;SDS011;40178;53.042;6.406;2022-08-21T15:33:26;4.28;;;1.10;;
54263;SDS011;40178;53.042;6.406;2022-08-21T15:35:51;3.85;;;0.80;;
54263;SDS011;40178;53.042;6.406;2022-08-21T15:38:17;2.65;;;0.77;;
54263;SDS011;40178;53.042;6.406;2022-08-21T15:40:43;3.30;;;0.70;;
54263;SDS011;40178;53.042;6.406;2022-08-21T15:43:18;3.60;;;0.98;;
54263;SDS011;40178;53.042;6.406;2022-08-21T15:45:48;3.13;;;0.90;;
54263;SDS011;40178;53.042;6.406;2022-08-21T15:48:14;5.93;;;0.90;;
54263;SDS011;40178;53.042;6.406;2022-08-21T15:50:39;4.53;;;1.08;;
54263;SDS011;40178;53.042;6.406;2022-08-21T15:53:05;3.63;;;0.95;;
54263;SDS011;40178;53.042;6.406;2022-08-21T15:55:33;3.47;;;0.95;;
54263;SDS011;40178;53.042;6.406;2022-08-21T15:57:59;5.63;;;1.90;;
54263;SDS011;40178;53.042;6.406;2022-08-21T16:00:25;4.00;;;1.00;;
54263;SDS011;40178;53.042;6.406;2022-08-21T16:02:53;7.38;;;1.45;;
54263;SDS011;40178;53.042;6.406;2022-08-21T16:05:22;4.25;;;1.00;;
54263;SDS011;40178;53.042;6.406;2022-08-21T16:07:48;3.03;;;1.00;;
54263;SDS011;40178;53.042;6.406;2022-08-21T16:10:16;3.22;;;1.00;;
54263;SDS011;40178;53.042;6.406;2022-08-21T16:12:45;7.63;;;1.17;;
54263;SDS011;40178;53.042;6.406;2022-08-21T16:15:15;4.47;;;1.42;;
54263;SDS011;40178;53.042;6.406;2022-08-21T16:17:42;7.63;;;1.10;;